Time;durP1;ratioP1;P1;durP2;ratioP2;P2;SDS_P1;SDS_P2;PMS_P1;PMS_P2;Temp;Humidity;BMP_temperature;BMP_pressure;BME280_temperature;BME280_humidity;BME280_pressure;Samples;Min_cycle;Max_cycle;Signal;HPM_P1;HPM_P2
2021/04/30 04:02:34;;;;;;;8.77;7.80;;;2.90;96.30;;;;;;4850170;29;20889;-74
2021/04/30 04:04:59;;;;;;;11.33;9.17;;;2.90;96.30;;;;;;4844137;29;20432;-74
2021/04/30 04:07:25;;;;;;;9.70;8.30;;;3.00;96.30;;;;;;4840280;29;20175;-73
2021/04/30 04:09:50;;;;;;;11.80;8.73;;;3.20;96.30;;;;;;4841064;29;20242;-73
2021/04/30 04:12:16;;;;;;;13.67;10.27;;;3.30;96.30;;;;;;4840606;29;20240;-74
2021/04/30 04:14:43;;;;;;;17.13;12.47;;;3.40;96.30;;;;;;4841409;29;20590;-73
2021/04/30 04:17:08;;;;;;;15.33;8.90;;;3.60;96.30;;;;;;4840696;29;20177;-74
2021/04/30 04:19:34;;;;;;;10.20;7.73;;;3.70;96.30;;;;;;4841031;29;20506;-74
2021/04/30 04:21:59;;;;;;;11.50;8.73;;;3.70;96.30;;;;;;4840871;29;20206;-74
2021/04/30 04:24:25;;;;;;;11.57;8.80;;;3.70;96.30;;;;;;4841133;29;20656;-73
2021/04/30 04:26:50;;;;;;;10.80;8.53;;;3.80;96.30;;;;;;4840782;29;20187;-75
2021/04/30 04:29:16;;;;;;;13.13;9.30;;;3.90;96.30;;;;;;4843849;29;20648;-74
2021/04/30 04:31:41;;;;;;;11.73;8.07;;;3.90;96.30;;;;;;4844698;29;20246;-74
2021/04/30 04:34:07;;;;;;;10.70;8.30;;;3.90;96.30;;;;;;4844714;29;20662;-74
2021/04/30 04:36:33;;;;;;;13.67;9.10;;;3.90;96.30;;;;;;4844690;29;20179;-73
2021/04/30 04:38:59;;;;;;;12.03;9.20;;;4.00;96.30;;;;;;4843847;29;20568;-73
2021/04/30 04:41:24;;;;;;;16.23;10.10;;;4.00;96.30;;;;;;4844566;29;20444;-73
2021/04/30 04:43:50;;;;;;;12.17;9.00;;;4.10;96.30;;;;;;4844608;29;20659;-73
2021/04/30 04:46:16;;;;;;;13.40;9.57;;;4.10;96.30;;;;;;4844594;29;20658;-74
2021/04/30 04:48:41;;;;;;;11.20;9.57;;;4.10;96.30;;;;;;4857624;29;20471;-74
2021/04/30 04:51:07;;;;;;;9.80;8.30;;;4.20;96.30;;;;;;4844320;29;20222;-74
2021/04/30 04:53:32;;;;;;;12.10;9.40;;;4.30;96.30;;;;;;4843130;29;20183;-74
2021/04/30 04:55:58;;;;;;;15.03;9.30;;;4.30;96.30;;;;;;4844296;29;20262;-75
2021/04/30 04:58:23;;;;;;;17.27;9.00;;;4.30;96.30;;;;;;4842349;29;20181;-75
2021/04/30 05:00:49;;;;;;;16.57;10.00;;;4.30;96.30;;;;;;4844116;29;20226;-74
2021/04/30 05:03:14;;;;;;;14.20;9.47;;;4.30;96.30;;;;;;4843690;29;20215;-73
2021/04/30 05:05:40;;;;;;;16.37;9.10;;;4.30;96.30;;;;;;4842635;29;20187;-75
2021/04/30 05:08:05;;;;;;;11.50;8.50;;;4.50;96.30;;;;;;4847025;29;20190;-74
2021/04/30 05:10:31;;;;;;;14.07;9.40;;;4.50;96.30;;;;;;4862325;29;20589;-73
2021/04/30 05:12:56;;;;;;;12.20;8.70;;;4.40;96.30;;;;;;4862732;29;20179;-75
2021/04/30 05:15:22;;;;;;;15.50;8.37;;;4.40;96.30;;;;;;4862707;29;20203;-76
2021/04/30 05:17:48;;;;;;;12.90;9.30;;;4.30;96.30;;;;;;4862037;29;20234;-73
2021/04/30 05:20:13;;;;;;;12.40;8.97;;;4.40;96.30;;;;;;4861311;29;20190;-73
2021/04/30 05:22:41;;;;;;;9.27;8.20;;;4.50;96.30;;;;;;4859240;29;20217;-74
2021/04/30 05:25:11;;;;;;;13.90;8.20;;;4.60;96.30;;;;;;4859229;29;20182;-73
2021/04/30 05:27:40;;;;;;;11.63;9.23;;;4.80;96.30;;;;;;4861499;29;20439;-75
2021/04/30 05:30:08;;;;;;;11.90;8.27;;;5.00;96.30;;;;;;4862456;29;20490;-73
2021/04/30 05:32:33;;;;;;;13.17;8.90;;;5.00;96.30;;;;;;4862373;29;20427;-73
2021/04/30 05:35:02;;;;;;;11.50;9.20;;;5.10;96.30;;;;;;4862151;29;20438;-74
2021/04/30 05:37:28;;;;;;;13.40;9.40;;;5.20;96.30;;;;;;4861527;29;20183;-73
2021/04/30 05:39:53;;;;;;;11.53;9.00;;;5.30;96.30;;;;;;4861841;29;20919;-73
2021/04/30 05:42:19;;;;;;;12.77;9.30;;;5.40;96.30;;;;;;4861880;29;20202;-73
2021/04/30 05:44:44;;;;;;;13.60;8.40;;;5.50;96.30;;;;;;4853798;29;20536;-73
2021/04/30 05:47:09;;;;;;;11.93;8.73;;;5.60;96.30;;;;;;4843030;29;20215;-75
2021/04/30 05:49:35;;;;;;;11.37;8.93;;;5.40;96.30;;;;;;4850065;29;20210;-75
2021/04/30 05:52:00;;;;;;;13.13;8.80;;;5.40;96.30;;;;;;4860286;29;20782;-77
2021/04/30 05:54:26;;;;;;;13.47;8.67;;;5.30;96.30;;;;;;4849252;29;20195;-75
2021/04/30 05:56:53;;;;;;;11.80;8.90;;;5.30;96.30;;;;;;4849374;29;20227;-76
2021/04/30 05:59:19;;;;;;;14.30;8.40;;;5.30;96.30;;;;;;4859171;29;20411;-75
2021/04/30 06:01:44;;;;;;;13.40;8.80;;;5.30;96.30;;;;;;4844511;29;20471;-74
2021/04/30 06:04:10;;;;;;;15.67;8.60;;;5.30;96.30;;;;;;4843491;29;20171;-76
2021/04/30 06:06:35;;;;;;;15.70;9.40;;;5.30;96.30;;;;;;4860964;29;20651;-74
2021/04/30 06:09:01;;;;;;;16.50;9.57;;;5.30;96.30;;;;;;4854690;29;20179;-75
2021/04/30 06:11:26;;;;;;;10.27;8.30;;;5.40;96.30;;;;;;4859565;29;20218;-75
2021/04/30 06:13:52;;;;;;;18.07;8.67;;;5.50;96.30;;;;;;4861467;29;20182;-74
2021/04/30 06:16:17;;;;;;;11.70;8.27;;;5.50;96.30;;;;;;4852554;29;20265;-75
2021/04/30 06:18:43;;;;;;;19.17;8.60;;;5.60;96.30;;;;;;4860182;29;20722;-75
2021/04/30 06:21:10;;;;;;;11.53;8.20;;;5.60;96.30;;;;;;4861457;29;20210;-74
2021/04/30 06:23:35;;;;;;;16.90;8.10;;;5.60;96.30;;;;;;4861830;29;20179;-73
2021/04/30 06:26:01;;;;;;;9.80;8.43;;;5.70;96.30;;;;;;4852052;29;20467;-74
2021/04/30 06:28:26;;;;;;;13.27;8.70;;;5.70;96.30;;;;;;4861025;29;20194;-74
2021/04/30 06:30:52;;;;;;;10.90;8.77;;;5.80;96.30;;;;;;4861102;29;20274;-74
2021/04/30 06:33:17;;;;;;;9.97;7.50;;;5.90;96.30;;;;;;4849692;29;20186;-74
2021/04/30 06:35:43;;;;;;;11.80;8.40;;;6.00;96.30;;;;;;4843081;29;20250;-74
2021/04/30 06:38:08;;;;;;;17.07;8.90;;;6.10;96.30;;;;;;4842171;29;20273;-74
2021/04/30 06:40:34;;;;;;;12.80;8.37;;;6.30;96.30;;;;;;4842776;29;20202;-72
2021/04/30 06:43:00;;;;;;;8.60;7.20;;;6.50;96.30;;;;;;4842652;29;20258;-72
2021/04/30 06:45:25;;;;;;;12.63;9.27;;;6.50;96.30;;;;;;4843182;29;20222;-73
2021/04/30 06:47:51;;;;;;;10.40;8.03;;;6.40;96.30;;;;;;4860202;29;20190;-72
2021/04/30 06:50:17;;;;;;;9.83;8.33;;;6.30;96.30;;;;;;4859750;29;20218;-72
2021/04/30 06:52:42;;;;;;;9.00;7.70;;;6.40;96.30;;;;;;4860267;29;20250;-71
2021/04/30 06:55:08;;;;;;;9.43;7.80;;;6.40;96.30;;;;;;4860501;29;20762;-72
2021/04/30 06:57:34;;;;;;;13.77;7.90;;;6.40;96.30;;;;;;4857137;29;20526;-72
2021/04/30 06:59:59;;;;;;;7.53;6.83;;;6.40;96.30;;;;;;4842361;29;20430;-72
2021/04/30 07:02:25;;;;;;;9.53;8.00;;;6.30;96.30;;;;;;4860362;29;20753;-71
2021/04/30 07:04:51;;;;;;;8.03;7.23;;;6.30;96.30;;;;;;4859643;29;20233;-72
2021/04/30 07:07:16;;;;;;;10.20;7.77;;;6.40;96.30;;;;;;4855192;29;20187;-72
2021/04/30 07:09:42;;;;;;;9.10;7.67;;;6.50;96.30;;;;;;4860544;29;20254;-71
2021/04/30 07:12:08;;;;;;;8.30;7.43;;;6.50;96.30;;;;;;4860569;29;20210;-71
2021/04/30 07:14:34;;;;;;;10.50;7.90;;;6.70;96.30;;;;;;4842494;29;20183;-73
2021/04/30 07:17:01;;;;;;;8.40;7.50;;;6.80;96.30;;;;;;4845308;29;21013;-71
2021/04/30 07:19:26;;;;;;;9.17;8.10;;;6.90;96.30;;;;;;4842177;29;20274;-71
2021/04/30 07:21:52;;;;;;;11.43;7.83;;;7.00;96.30;;;;;;4841735;29;20603;-71
2021/04/30 07:24:17;;;;;;;14.27;8.40;;;6.90;96.30;;;;;;4859060;29;20186;-71
2021/04/30 07:26:43;;;;;;;7.17;6.47;;;7.10;96.30;;;;;;4860314;29;20257;-71
2021/04/30 07:29:08;;;;;;;8.67;7.77;;;7.30;96.30;;;;;;4845912;29;20206;-71
2021/04/30 07:31:34;;;;;;;8.93;7.50;;;7.10;96.30;;;;;;4856749;29;20220;-71
2021/04/30 07:33:59;;;;;;;8.90;8.00;;;7.20;96.30;;;;;;4848139;29;20183;-71
2021/04/30 07:36:25;;;;;;;9.00;7.73;;;7.30;96.30;;;;;;4841707;29;20182;-72
2021/04/30 07:38:50;;;;;;;9.30;7.57;;;7.40;96.30;;;;;;4841699;29;20190;-71
2021/04/30 07:41:16;;;;;;;8.70;7.80;;;7.50;96.30;;;;;;4842208;29;20210;-72
2021/04/30 07:43:42;;;;;;;8.40;7.53;;;7.30;96.30;;;;;;4859700;29;20538;-72
2021/04/30 07:46:08;;;;;;;8.10;6.93;;;7.40;96.30;;;;;;4860138;29;20422;-72
2021/04/30 07:48:33;;;;;;;8.70;6.80;;;7.70;96.30;;;;;;4844240;29;20191;-72
2021/04/30 07:51:01;;;;;;;8.73;7.40;;;7.80;96.30;;;;;;4841590;29;20564;-72
2021/04/30 07:53:26;;;;;;;9.50;8.23;;;7.70;96.30;;;;;;4855699;29;20231;-72
2021/04/30 07:55:53;;;;;;;8.37;7.57;;;7.60;96.30;;;;;;4859982;29;20423;-72
2021/04/30 07:58:19;;;;;;;9.63;8.17;;;7.80;96.30;;;;;;4846721;29;20190;-72
2021/04/30 08:00:45;;;;;;;11.47;8.10;;;8.20;96.30;;;;;;4848963;29;20838;-72
2021/04/30 08:03:10;;;;;;;8.40;7.60;;;8.70;96.30;;;;;;4859913;29;20403;-72
2021/04/30 08:05:36;;;;;;;9.73;8.73;;;9.30;96.30;;;;;;4849619;29;20183;-73
2021/04/30 08:08:04;;;;;;;11.93;7.40;;;10.60;96.30;;;;;;4840929;29;20210;-72
2021/04/30 08:10:31;;;;;;;8.83;7.90;;;10.80;93.70;;;;;;4853408;29;20229;-72
2021/04/30 08:12:57;;;;;;;9.07;7.50;;;10.80;95.10;;;;;;4850479;29;20465;-72
2021/04/30 08:15:23;;;;;;;9.50;7.93;;;11.00;92.40;;;;;;4841451;29;20439;-73
2021/04/30 08:17:48;;;;;;;8.50;7.20;;;10.80;91.90;;;;;;4840685;29;20463;-72
2021/04/30 08:20:14;;;;;;;8.70;7.70;;;10.90;92.90;;;;;;4841242;29;20656;-71
2021/04/30 08:22:39;;;;;;;10.13;7.70;;;10.80;93.40;;;;;;4850722;29;20662;-71
2021/04/30 08:25:06;;;;;;;10.80;7.63;;;10.80;90.20;;;;;;4858411;29;20182;-71
2021/04/30 08:27:32;;;;;;;8.63;7.80;;;10.50;94.60;;;;;;4857507;29;20193;-71
2021/04/30 08:29:57;;;;;;;9.67;8.27;;;10.60;94.50;;;;;;4859485;29;20466;-72
2021/04/30 08:32:23;;;;;;;16.53;8.10;;;10.90;91.10;;;;;;4859456;29;20277;-71
2021/04/30 08:34:48;;;;;;;12.10;8.20;;;11.00;91.30;;;;;;4859633;29;20206;-71
2021/04/30 08:37:14;;;;;;;8.70;7.80;;;10.70;93.80;;;;;;4853884;29;20171;-71
2021/04/30 08:39:41;;;;;;;10.90;9.00;;;10.20;94.50;;;;;;4858994;29;20193;-74
2021/04/30 08:42:07;;;;;;;9.97;7.40;;;10.20;95.30;;;;;;4856552;29;20206;-72
2021/04/30 08:44:36;;;;;;;10.10;8.33;;;10.00;93.90;;;;;;4841115;29;20468;-72
2021/04/30 08:47:01;;;;;;;8.10;7.40;;;10.80;91.20;;;;;;4842393;29;20428;-72
2021/04/30 08:49:27;;;;;;;11.13;8.67;;;11.30;91.70;;;;;;4858416;29;20430;-72
2021/04/30 08:51:52;;;;;;;8.63;7.73;;;11.40;93.90;;;;;;4857409;29;20198;-75
2021/04/30 08:54:19;;;;;;;9.03;7.57;;;11.50;93.70;;;;;;4853808;29;20182;-73
2021/04/30 08:56:46;;;;;;;9.23;7.73;;;12.50;91.60;;;;;;4857567;29;20178;-73
2021/04/30 08:59:13;;;;;;;8.90;7.73;;;13.60;88.90;;;;;;4856572;29;20462;-72
2021/04/30 09:01:39;;;;;;;10.53;7.77;;;14.60;85.10;;;;;;4848287;29;20475;-75
2021/04/30 09:04:08;;;;;;;10.60;8.17;;;14.90;84.00;;;;;;4855390;29;20472;-72
2021/04/30 09:06:35;;;;;;;9.03;8.13;;;14.80;80.20;;;;;;4859048;29;20423;-71
2021/04/30 09:09:12;;;;;;;8.40;7.60;;;15.30;81.50;;;;;;4857757;29;20438;-71
2021/04/30 09:11:47;;;;;;;9.00;8.10;;;16.40;80.20;;;;;;4858545;29;20931;-72
2021/04/30 09:14:34;;;;;;;8.50;7.70;;;16.90;78.70;;;;;;4859452;29;20770;-73
2021/04/30 09:17:06;;;;;;;9.13;8.03;;;16.20;78.70;;;;;;4858642;29;20399;-74
2021/04/30 09:19:48;;;;;;;8.17;7.23;;;16.50;77.00;;;;;;4861896;29;20482;-72
2021/04/30 09:22:17;;;;;;;8.47;7.60;;;16.70;78.10;;;;;;4860884;29;20439;-71
2021/04/30 09:24:48;;;;;;;8.23;7.43;;;16.60;78.40;;;;;;4862241;29;20423;-71
2021/04/30 09:27:26;;;;;;;13.73;7.20;;;16.80;79.40;;;;;;4856476;29;20928;-71
2021/04/30 09:29:52;;;;;;;7.77;6.97;;;16.50;79.70;;;;;;4844825;29;20793;-72
2021/04/30 09:32:17;;;;;;;9.33;8.10;;;17.10;79.20;;;;;;4852560;29;20548;-73
2021/04/30 09:34:43;;;;;;;9.83;7.63;;;17.30;74.90;;;;;;4862050;29;20179;-71
2021/04/30 09:37:10;;;;;;;10.67;7.83;;;17.40;72.40;;;;;;4860261;29;20182;-72
2021/04/30 09:39:54;;;;;;;9.03;7.10;;;17.90;77.70;;;;;;4859725;29;20182;-73
2021/04/30 09:42:21;;;;;;;8.57;7.80;;;17.20;75.70;;;;;;4862229;29;20450;-71
2021/04/30 09:45:08;;;;;;;7.90;7.20;;;17.20;77.40;;;;;;4862505;29;20426;-71
2021/04/30 09:47:35;;;;;;;7.40;6.70;;;16.40;74.60;;;;;;4859899;29;20431;-72
2021/04/30 09:50:09;;;;;;;11.93;7.60;;;15.40;77.90;;;;;;4861019;29;20466;-72
2021/04/30 09:52:35;;;;;;;7.83;6.97;;;14.70;79.20;;;;;;4861851;29;20446;-71
2021/04/30 09:55:03;;;;;;;11.37;8.70;;;14.00;80.60;;;;;;4861279;29;20950;-72
2021/04/30 09:57:33;;;;;;;8.17;7.47;;;13.70;84.90;;;;;;4850784;29;20428;-72
2021/04/30 10:00:05;;;;;;;7.53;6.80;;;14.30;86.70;;;;;;4843629;29;20944;-73
2021/04/30 10:02:34;;;;;;;7.60;6.80;;;14.30;78.10;;;;;;4843364;29;20455;-71
2021/04/30 10:05:22;;;;;;;8.30;7.50;;;15.20;86.70;;;;;;4843734;29;20854;-72
2021/04/30 10:07:48;;;;;;;7.47;6.30;;;15.30;80.60;;;;;;4859428;29;20986;-72
2021/04/30 10:10:16;;;;;;;6.43;5.93;;;15.00;81.50;;;;;;4843489;29;20581;-72
2021/04/30 10:12:47;;;;;;;7.47;6.67;;;13.80;79.80;;;;;;4843365;29;20217;-72
2021/04/30 10:15:19;;;;;;;5.90;5.37;;;13.00;85.20;;;;;;4843491;29;20514;-72
2021/04/30 10:17:46;;;;;;;7.20;6.50;;;13.30;84.90;;;;;;4842797;29;20412;-72
2021/04/30 10:20:12;;;;;;;6.77;6.17;;;15.00;88.40;;;;;;4859765;29;20439;-72
2021/04/30 10:22:41;;;;;;;6.90;6.20;;;15.10;76.80;;;;;;4861446;29;20494;-72
2021/04/30 10:25:10;;;;;;;6.63;6.03;;;14.50;83.70;;;;;;4859905;29;20438;-72
2021/04/30 10:27:42;;;;;;;7.53;6.83;;;14.40;80.10;;;;;;4860510;29;20469;-72
2021/04/30 10:30:23;;;;;;;7.77;7.00;;;15.10;81.80;;;;;;4861374;29;20470;-71
2021/04/30 10:33:20;;;;;;;12.23;7.10;;;14.90;78.20;;;;;;4860774;29;20430;-71
2021/04/30 10:36:05;;;;;;;7.83;6.10;;;14.60;79.00;;;;;;4846522;29;20404;-71
2021/04/30 10:38:33;;;;;;;6.40;5.80;;;14.00;79.20;;;;;;4858040;29;20423;-72
2021/04/30 10:41:08;;;;;;;6.17;5.50;;;13.60;82.00;;;;;;4841159;29;20464;-72
2021/04/30 10:43:34;;;;;;;8.20;5.30;;;13.60;83.20;;;;;;4837847;29;20444;-71
2021/04/30 10:46:15;;;;;;;6.90;6.20;;;13.90;80.90;;;;;;4842487;29;20546;-71
2021/04/30 10:49:05;;;;;;;5.57;5.07;;;13.90;82.80;;;;;;4841109;29;20412;-71
2021/04/30 10:51:32;;;;;;;6.13;5.53;;;13.50;81.80;;;;;;4841750;29;20483;-71
2021/04/30 10:54:24;;;;;;;5.47;4.97;;;14.30;79.20;;;;;;4842770;29;21126;-71
2021/04/30 10:57:04;;;;;;;5.57;5.07;;;14.50;77.00;;;;;;4841409;29;20940;-71
2021/04/30 10:59:36;;;;;;;5.60;4.53;;;15.40;85.40;;;;;;4842519;29;20908;-71
2021/04/30 11:02:18;;;;;;;4.50;4.10;;;16.50;79.10;;;;;;4849030;29;20474;-71
2021/04/30 11:05:05;;;;;;;5.30;4.80;;;17.20;77.90;;;;;;4860401;29;20459;-72
2021/04/30 11:07:45;;;;;;;7.57;4.93;;;17.20;72.60;;;;;;4858257;29;21001;-71
2021/04/30 11:10:26;;;;;;;6.20;5.17;;;16.90;70.80;;;;;;4859823;29;20851;-72
2021/04/30 11:13:14;;;;;;;6.70;6.10;;;17.30;77.60;;;;;;4858815;29;20979;-72
2021/04/30 11:15:45;;;;;;;10.60;6.30;;;16.90;73.00;;;;;;4850426;29;20836;-72
2021/04/30 11:18:41;;;;;;;5.73;5.23;;;16.60;73.50;;;;;;4858732;29;20478;-74
2021/04/30 11:21:09;;;;;;;6.40;5.80;;;17.30;77.60;;;;;;4856620;29;20999;-71
2021/04/30 11:23:39;;;;;;;7.50;6.80;;;17.10;75.90;;;;;;4859464;29;20439;-72
2021/04/30 11:26:10;;;;;;;6.70;6.10;;;16.40;72.60;;;;;;4858769;29;20415;-71
2021/04/30 11:28:41;;;;;;;7.03;5.50;;;15.60;72.20;;;;;;4855505;29;20423;-71
2021/04/30 11:31:32;;;;;;;6.80;6.20;;;15.30;74.80;;;;;;4843528;29;20471;-71
2021/04/30 11:34:11;;;;;;;6.33;5.83;;;16.20;78.80;;;;;;4854602;29;20439;-71
2021/04/30 11:36:39;;;;;;;7.50;5.83;;;16.60;74.20;;;;;;4854642;29;20411;-72
2021/04/30 11:39:29;;;;;;;6.90;6.00;;;16.80;73.50;;;;;;4849490;29;20439;-71
2021/04/30 11:42:06;;;;;;;6.10;5.60;;;16.70;82.50;;;;;;4849061;29;20455;-74
2021/04/30 11:44:31;;;;;;;6.20;5.60;;;16.90;74.10;;;;;;4849809;29;20431;-74
2021/04/30 11:47:03;;;;;;;6.87;5.73;;;16.70;77.60;;;;;;4859368;29;20423;-71
2021/04/30 11:49:31;;;;;;;6.30;5.70;;;16.80;72.20;;;;;;4857870;29;20177;-71
2021/04/30 11:51:57;;;;;;;6.33;5.70;;;15.70;74.10;;;;;;4859393;29;20494;-71
2021/04/30 11:54:34;;;;;;;10.83;5.50;;;15.50;75.00;;;;;;4840537;29;20428;-71
2021/04/30 11:57:05;;;;;;;7.43;6.73;;;14.70;77.50;;;;;;4848032;29;20415;-71
2021/04/30 11:59:31;;;;;;;5.83;5.33;;;14.10;79.30;;;;;;4847629;29;20425;-72
2021/04/30 12:02:05;;;;;;;6.80;6.03;;;14.20;80.90;;;;;;4857251;29;20549;-72
2021/04/30 12:04:54;;;;;;;8.43;5.40;;;14.30;79.60;;;;;;4857809;29;20530;-72
2021/04/30 12:07:22;;;;;;;6.53;5.87;;;14.00;79.90;;;;;;4856723;29;21470;-72
2021/04/30 12:09:49;;;;;;;7.37;5.70;;;14.60;77.20;;;;;;4859450;29;20492;-72
2021/04/30 12:12:16;;;;;;;6.07;5.47;;;15.20;76.10;;;;;;4846677;29;20512;-72
2021/04/30 12:14:44;;;;;;;6.23;5.20;;;15.10;75.80;;;;;;4858843;29;20427;-72
2021/04/30 12:17:51;;;;;;;6.80;5.87;;;15.00;76.30;;;;;;4844517;29;20459;-72
2021/04/30 12:20:23;;;;;;;6.40;5.80;;;14.40;74.50;;;;;;4826329;29;20855;-72
2021/04/30 12:22:54;;;;;;;6.20;5.60;;;14.50;76.80;;;;;;4858966;29;20927;-72
2021/04/30 12:25:27;;;;;;;7.93;5.50;;;14.90;79.60;;;;;;4857928;29;20819;-72
2021/04/30 12:27:55;;;;;;;5.87;5.30;;;15.30;77.30;;;;;;4850191;29;20456;-73
2021/04/30 12:30:31;;;;;;;6.10;5.50;;;16.00;78.90;;;;;;4859119;29;20462;-73
2021/04/30 12:32:59;;;;;;;6.57;5.77;;;16.10;75.30;;;;;;4858836;29;20434;-72
2021/04/30 12:35:26;;;;;;;6.63;6.03;;;15.50;76.10;;;;;;4857218;29;20423;-73
2021/04/30 12:37:52;;;;;;;9.67;7.00;;;16.10;78.90;;;;;;4840359;29;20408;-73
2021/04/30 12:40:28;;;;;;;8.03;7.23;;;16.00;75.70;;;;;;4842455;29;20504;-73
2021/04/30 12:42:56;;;;;;;9.47;7.43;;;15.80;77.30;;;;;;4840659;29;20424;-74
2021/04/30 12:45:22;;;;;;;7.50;6.33;;;15.40;77.40;;;;;;4841143;29;20833;-74
2021/04/30 12:47:51;;;;;;;8.43;7.60;;;14.50;76.80;;;;;;4858383;29;20426;-74
2021/04/30 12:50:18;;;;;;;7.30;6.60;;;14.00;77.40;;;;;;4846267;29;20460;-74
2021/04/30 12:52:48;;;;;;;12.23;7.70;;;13.40;76.40;;;;;;4847265;29;20439;-74
2021/04/30 12:55:27;;;;;;;7.90;7.03;;;13.80;81.30;;;;;;4862856;29;20431;-74
2021/04/30 12:57:59;;;;;;;7.53;6.80;;;14.20;83.00;;;;;;4862249;29;20505;-74
2021/04/30 13:00:25;;;;;;;11.17;7.80;;;14.60;81.60;;;;;;4847018;29;20997;-74
2021/04/30 13:02:50;;;;;;;9.00;7.80;;;14.40;81.00;;;;;;4845310;29;20975;-73
2021/04/30 13:05:16;;;;;;;7.90;7.10;;;14.30;83.90;;;;;;4845092;29;20423;-74
2021/04/30 13:07:42;;;;;;;7.63;6.70;;;14.40;82.90;;;;;;4847917;29;20213;-74
2021/04/30 13:10:08;;;;;;;8.40;7.53;;;14.40;83.20;;;;;;4849501;29;20312;-74
2021/04/30 13:12:35;;;;;;;8.10;7.30;;;14.40;77.60;;;;;;4860691;29;20577;-74
2021/04/30 13:15:00;;;;;;;7.93;7.27;;;14.20;80.20;;;;;;4857508;29;20465;-74
2021/04/30 13:17:28;;;;;;;9.43;7.37;;;14.00;81.40;;;;;;4849805;29;20525;-74
2021/04/30 13:20:17;;;;;;;11.43;7.10;;;13.90;80.00;;;;;;4862518;29;20186;-74
2021/04/30 13:22:43;;;;;;;7.83;7.10;;;13.50;84.60;;;;;;4862222;29;20426;-74
2021/04/30 13:25:14;;;;;;;8.23;7.20;;;13.50;79.60;;;;;;4847897;29;20457;-74
2021/04/30 13:27:49;;;;;;;8.40;7.47;;;13.40;80.60;;;;;;4854160;29;20186;-74
2021/04/30 13:30:15;;;;;;;8.33;7.40;;;13.20;87.20;;;;;;4862017;29;20470;-73
2021/04/30 13:32:41;;;;;;;7.43;6.73;;;13.40;81.40;;;;;;4862275;29;20950;-73
2021/04/30 13:35:09;;;;;;;11.83;7.47;;;13.30;81.20;;;;;;4861947;29;20419;-73
2021/04/30 13:37:41;;;;;;;8.43;7.60;;;13.10;80.90;;;;;;4861399;29;20217;-73
2021/04/30 13:40:12;;;;;;;12.90;7.53;;;12.90;84.30;;;;;;4862089;29;20435;-73
2021/04/30 13:42:42;;;;;;;12.80;7.83;;;12.90;83.90;;;;;;4862348;29;20479;-73
2021/04/30 13:45:10;;;;;;;8.80;7.90;;;13.20;85.30;;;;;;4862921;29;20816;-73
2021/04/30 13:47:39;;;;;;;8.60;7.03;;;12.90;81.60;;;;;;4862138;29;20998;-73
2021/04/30 13:50:09;;;;;;;10.13;7.90;;;12.70;82.60;;;;;;4862106;29;20467;-73
2021/04/30 13:52:35;;;;;;;12.43;7.13;;;12.20;85.20;;;;;;4862010;29;20951;-73
2021/04/30 13:55:00;;;;;;;9.90;7.77;;;12.20;83.30;;;;;;4861411;29;20503;-73
2021/04/30 13:57:26;;;;;;;8.50;7.70;;;12.30;87.70;;;;;;4860968;29;20239;-73
2021/04/30 13:59:52;;;;;;;8.37;7.57;;;12.50;86.90;;;;;;4861326;29;20234;-74
2021/04/30 14:02:19;;;;;;;10.23;6.80;;;12.50;84.80;;;;;;4861528;29;20225;-73
2021/04/30 14:04:45;;;;;;;8.20;7.40;;;12.40;85.80;;;;;;4861380;29;20911;-73
2021/04/30 14:07:11;;;;;;;7.97;7.17;;;12.10;86.10;;;;;;4860912;29;20471;-74
2021/04/30 14:09:41;;;;;;;8.80;7.10;;;12.10;86.20;;;;;;4861841;29;20773;-73
2021/04/30 14:12:09;;;;;;;8.50;7.30;;;11.90;85.90;;;;;;4861822;29;20442;-73
2021/04/30 14:14:37;;;;;;;12.87;8.87;;;11.90;85.30;;;;;;4861587;29;20556;-73
2021/04/30 14:17:03;;;;;;;11.40;7.30;;;12.00;87.40;;;;;;4861301;29;20915;-73
2021/04/30 14:19:28;;;;;;;9.67;8.00;;;11.80;86.40;;;;;;4861319;29;20431;-74
2021/04/30 14:21:55;;;;;;;10.53;9.27;;;12.00;89.60;;;;;;4861423;29;20443;-73
2021/04/30 14:24:21;;;;;;;11.67;7.60;;;11.90;88.10;;;;;;4861428;29;20270;-73
2021/04/30 14:26:46;;;;;;;11.70;9.37;;;11.70;90.90;;;;;;4861220;29;20506;-73
2021/04/30 14:29:12;;;;;;;9.73;8.40;;;11.70;89.10;;;;;;4860857;29;20656;-73
2021/04/30 14:31:39;;;;;;;10.47;9.20;;;11.50;90.00;;;;;;4861477;29;20237;-73
2021/04/30 14:34:05;;;;;;;9.00;7.60;;;11.60;92.00;;;;;;4861364;29;20510;-73
2021/04/30 14:36:31;;;;;;;8.57;7.77;;;11.60;90.20;;;;;;4860591;29;20431;-73
2021/04/30 14:38:57;;;;;;;13.90;8.87;;;11.50;89.80;;;;;;4859772;29;20434;-74
2021/04/30 14:41:23;;;;;;;9.03;8.20;;;11.40;89.80;;;;;;4861085;29;21079;-75
2021/04/30 14:43:49;;;;;;;9.97;8.97;;;11.20;90.50;;;;;;4861096;29;20174;-74
2021/04/30 14:46:14;;;;;;;8.90;8.00;;;11.20;90.30;;;;;;4861101;29;20458;-74
2021/04/30 14:48:40;;;;;;;11.03;9.13;;;11.10;90.80;;;;;;4861762;29;20202;-75
2021/04/30 14:51:06;;;;;;;9.73;8.17;;;11.10;92.80;;;;;;4860950;29;20224;-75
2021/04/30 14:53:31;;;;;;;12.70;8.83;;;11.10;93.10;;;;;;4843873;29;20179;-74
2021/04/30 14:55:57;;;;;;;10.57;8.03;;;11.10;91.20;;;;;;4849821;29;20262;-74
2021/04/30 14:58:22;;;;;;;8.30;6.90;;;11.00;90.20;;;;;;4861756;29;20202;-74
2021/04/30 15:00:48;;;;;;;10.40;7.80;;;11.00;91.30;;;;;;4862003;29;20218;-73
2021/04/30 15:03:14;;;;;;;10.33;8.77;;;10.80;90.50;;;;;;4860514;29;20247;-75
2021/04/30 15:05:44;;;;;;;10.63;9.13;;;10.80;92.70;;;;;;4858936;29;20660;-74
2021/04/30 15:08:10;;;;;;;11.30;10.10;;;10.60;94.50;;;;;;4858617;29;20718;-74
2021/04/30 15:10:35;;;;;;;10.80;9.70;;;10.50;96.30;;;;;;4862016;29;20561;-74
2021/04/30 15:13:01;;;;;;;11.60;10.00;;;10.40;96.30;;;;;;4861581;29;20185;-74
2021/04/30 15:15:27;;;;;;;11.00;9.90;;;10.20;96.30;;;;;;4862315;29;20718;-74
2021/04/30 15:17:59;;;;;;;14.50;10.63;;;10.00;96.30;;;;;;4861898;29;20178;-75
2021/04/30 15:20:26;;;;;;;12.87;10.83;;;10.10;96.30;;;;;;4862075;29;20177;-74
2021/04/30 15:22:51;;;;;;;12.23;11.13;;;10.10;96.30;;;;;;4861360;29;20904;-74
2021/04/30 15:25:17;;;;;;;12.90;11.60;;;9.90;96.30;;;;;;4860525;29;20552;-74
2021/04/30 15:27:42;;;;;;;12.17;10.97;;;10.00;96.30;;;;;;4860929;29;20186;-74
2021/04/30 15:30:08;;;;;;;13.53;11.90;;;10.10;96.30;;;;;;4861684;29;20261;-74
2021/04/30 15:32:34;;;;;;;12.63;11.43;;;10.20;96.30;;;;;;4861931;29;20210;-74
2021/04/30 15:35:00;;;;;;;12.30;11.10;;;10.30;96.30;;;;;;4858512;29;20431;-74
2021/04/30 15:37:29;;;;;;;14.53;12.13;;;10.30;96.30;;;;;;4857547;29;20435;-75
2021/04/30 15:39:55;;;;;;;11.60;10.30;;;10.30;96.30;;;;;;4853514;29;20206;-75
2021/04/30 15:42:20;;;;;;;13.60;11.50;;;10.20;96.30;;;;;;4850757;29;20443;-75
2021/04/30 15:44:45;;;;;;;17.93;12.10;;;10.30;96.30;;;;;;4859056;29;20182;-75
2021/04/30 15:47:11;;;;;;;22.57;19.43;;;10.20;96.30;;;;;;4860475;29;20658;-73
2021/04/30 15:49:37;;;;;;;12.77;11.40;;;10.10;96.30;;;;;;4861373;29;20211;-73
2021/04/30 15:52:02;;;;;;;12.00;10.90;;;10.20;96.30;;;;;;4859548;29;20675;-74
2021/04/30 15:54:28;;;;;;;14.13;10.60;;;10.20;96.30;;;;;;4856137;29;20245;-74
2021/04/30 15:56:53;;;;;;;12.23;10.80;;;10.20;96.30;;;;;;4858112;29;20247;-73
2021/04/30 15:59:19;;;;;;;12.50;10.93;;;10.20;96.30;;;;;;4860261;29;20196;-74
2021/04/30 16:01:44;;;;;;;12.53;10.83;;;10.20;96.30;;;;;;4860631;29;20245;-74
2021/04/30 16:04:10;;;;;;;13.33;11.73;;;10.10;96.30;;;;;;4859889;29;20201;-74
2021/04/30 16:06:36;;;;;;;12.27;11.00;;;9.90;96.30;;;;;;4860334;29;20182;-74
2021/04/30 16:09:02;;;;;;;11.90;10.80;;;9.80;96.30;;;;;;4859452;29;20182;-74
2021/04/30 16:11:29;;;;;;;13.23;11.50;;;9.80;96.30;;;;;;4909370;23;20236;-79
2021/04/30 16:13:57;;;;;;;14.93;12.20;;;9.80;96.30;;;;;;4897337;29;20432;-81
2021/04/30 16:16:22;;;;;;;13.23;11.90;;;9.70;96.30;;;;;;4910112;29;20420;-79
2021/04/30 16:18:48;;;;;;;16.47;12.50;;;9.60;96.30;;;;;;4911296;29;20925;-81
2021/04/30 16:21:13;;;;;;;12.63;11.30;;;9.60;96.30;;;;;;4887951;29;20197;-80
2021/04/30 16:23:39;;;;;;;15.10;12.27;;;9.50;96.30;;;;;;4880886;29;20704;-80
2021/04/30 16:26:05;;;;;;;14.73;13.17;;;9.40;96.30;;;;;;4899632;29;20267;-80
2021/04/30 16:28:34;;;;;;;14.30;12.90;;;9.30;96.30;;;;;;4895542;29;20249;-80
2021/04/30 16:31:02;;;;;;;13.60;12.30;;;9.20;96.30;;;;;;4885315;29;20220;-80
2021/04/30 16:33:27;;;;;;;14.83;12.00;;;9.20;96.30;;;;;;4886041;29;20413;-79
2021/04/30 16:35:53;;;;;;;13.20;11.80;;;9.10;96.30;;;;;;4894693;29;20466;-80
2021/04/30 16:38:19;;;;;;;14.40;12.90;;;9.00;96.30;;;;;;4896298;29;20268;-80
2021/04/30 16:40:45;;;;;;;13.90;12.17;;;8.90;96.30;;;;;;4881840;29;20533;-79
2021/04/30 16:43:10;;;;;;;13.63;12.33;;;8.80;96.30;;;;;;4896364;29;20188;-80
2021/04/30 16:45:36;;;;;;;16.43;12.30;;;8.70;96.30;;;;;;4880735;29;20184;-81
2021/04/30 16:48:03;;;;;;;14.80;12.73;;;8.60;96.30;;;;;;4904772;29;20601;-80
2021/04/30 16:50:28;;;;;;;16.13;14.43;;;8.60;96.30;;;;;;4896254;29;20205;-80
2021/04/30 16:52:54;;;;;;;15.20;12.93;;;8.50;96.30;;;;;;4861884;29;20516;-82